sensor_id;sensor_type;location;lat;lon;timestamp;pressure;altitude;pressure_sealevel;temperature;humidity
61573;BME280;47465;43.094;12.434;2023-05-13T00:00:47;98767.53;;;9.83;100.00
61573;BME280;47465;43.094;12.434;2023-05-13T00:03:12;98770.88;;;9.92;100.00
61573;BME280;47465;43.094;12.434;2023-05-13T00:05:38;98776.31;;;9.87;100.00
61573;BME280;47465;43.094;12.434;2023-05-13T00:08:04;98777.06;;;9.92;100.00
61573;BME280;47465;43.094;12.434;2023-05-13T00:10:31;98773.81;;;9.79;100.00
61573;BME280;47465;43.094;12.434;2023-05-13T00:12:59;98767.91;;;9.66;100.00
61573;BME280;47465;43.094;12.434;2023-05-13T00:15:25;98773.44;;;9.57;100.00
61573;BME280;47465;43.094;12.434;2023-05-13T00:17:51;98769.16;;;9.52;100.00
61573;BME280;47465;43.094;12.434;2023-05-13T00:20:16;98746.56;;;9.34;100.00
61573;BME280;47465;43.094;12.434;2023-05-13T00:22:42;98766.31;;;9.61;100.00
61573;BME280;47465;43.094;12.434;2023-05-13T00:25:08;98758.00;;;9.75;100.00
61573;BME280;47465;43.094;12.434;2023-05-13T00:27:34;98766.00;;;9.73;100.00
61573;BME280;47465;43.094;12.434;2023-05-13T00:30:01;98758.38;;;9.59;100.00
61573;BME280;47465;43.094;12.434;2023-05-13T00:32:30;98745.44;;;9.44;100.00
61573;BME280;47465;43.094;12.434;2023-05-13T00:34:56;98754.25;;;9.46;100.00
61573;BME280;47465;43.094;12.434;2023-05-13T00:37:22;98786.72;;;9.57;100.00
61573;BME280;47465;43.094;12.434;2023-05-13T00:39:48;98767.19;;;9.60;100.00
61573;BME280;47465;43.094;12.434;2023-05-13T00:42:13;98762.84;;;9.56;100.00
61573;BME280;47465;43.094;12.434;2023-05-13T00:44:39;98770.69;;;9.62;100.00
61573;BME280;47465;43.094;12.434;2023-05-13T00:47:07;98752.25;;;9.56;100.00
61573;BME280;47465;43.094;12.434;2023-05-13T00:49:35;98749.53;;;9.59;100.00
61573;BME280;47465;43.094;12.434;2023-05-13T00:52:01;98749.66;;;9.53;100.00
61573;BME280;47465;43.094;12.434;2023-05-13T00:54:27;98748.16;;;9.41;100.00
61573;BME280;47465;43.094;12.434;2023-05-13T00:56:53;98744.84;;;9.31;100.00
61573;BME280;47465;43.094;12.434;2023-05-13T00:59:22;98741.38;;;9.28;100.00
61573;BME280;47465;43.094;12.434;2023-05-13T01:01:56;98725.75;;;9.15;100.00
61573;BME280;47465;43.094;12.434;2023-05-13T01:04:30;98732.69;;;9.21;100.00
61573;BME280;47465;43.094;12.434;2023-05-13T01:07:08;98749.22;;;9.32;100.00
61573;BME280;47465;43.094;12.434;2023-05-13T01:09:44;98754.53;;;9.34;100.00
61573;BME280;47465;43.094;12.434;2023-05-13T01:12:17;98745.06;;;9.22;100.00
61573;BME280;47465;43.094;12.434;2023-05-13T01:14:51;98746.06;;;9.16;100.00
61573;BME280;47465;43.094;12.434;2023-05-13T01:17:23;98782.81;;;9.35;100.00
61573;BME280;47465;43.094;12.434;2023-05-13T01:19:55;98762.78;;;9.20;100.00
61573;BME280;47465;43.094;12.434;2023-05-13T01:22:23;98771.44;;;9.28;100.00
61573;BME280;47465;43.094;12.434;2023-05-13T01:24:49;98750.63;;;9.10;100.00
61573;BME280;47465;43.094;12.434;2023-05-13T01:27:15;98750.72;;;9.05;100.00
61573;BME280;47465;43.094;12.434;2023-05-13T01:29:41;98781.31;;;9.21;100.00
61573;BME280;47465;43.094;12.434;2023-05-13T01:32:08;98783.19;;;9.18;100.00
61573;BME280;47465;43.094;12.434;2023-05-13T01:34:35;98762.41;;;8.95;100.00
61573;BME280;47465;43.094;12.434;2023-05-13T01:37:01;98750.25;;;8.84;100.00
61573;BME280;47465;43.094;12.434;2023-05-13T01:39:29;98763.50;;;8.86;100.00
61573;BME280;47465;43.094;12.434;2023-05-13T01:41:56;98789.66;;;9.03;100.00
61573;BME280;47465;43.094;12.434;2023-05-13T01:44:22;98783.72;;;8.92;100.00
61573;BME280;47465;43.094;12.434;2023-05-13T01:46:48;98791.56;;;8.96;100.00
61573;BME280;47465;43.094;12.434;2023-05-13T01:49:15;98767.16;;;8.80;100.00
61573;BME280;47465;43.094;12.434;2023-05-13T01:51:40;98767.94;;;8.84;100.00
61573;BME280;47465;43.094;12.434;2023-05-13T01:54:06;98788.19;;;8.88;100.00
61573;BME280;47465;43.094;12.434;2023-05-13T01:56:34;98772.50;;;8.77;100.00
61573;BME280;47465;43.094;12.434;2023-05-13T01:59:00;98776.72;;;8.88;100.00
61573;BME280;47465;43.094;12.434;2023-05-13T02:01:26;98748.84;;;8.67;100.00
61573;BME280;47465;43.094;12.434;2023-05-13T02:03:52;98734.91;;;8.57;100.00
61573;BME280;47465;43.094;12.434;2023-05-13T02:06:18;98755.75;;;8.74;100.00
61573;BME280;47465;43.094;12.434;2023-05-13T02:08:44;98736.53;;;8.64;100.00
61573;BME280;47465;43.094;12.434;2023-05-13T02:11:10;98753.09;;;8.75;100.00
61573;BME280;47465;43.094;12.434;2023-05-13T02:13:37;98755.69;;;8.78;100.00
61573;BME280;47465;43.094;12.434;2023-05-13T02:16:03;98732.13;;;8.63;100.00
61573;BME280;47465;43.094;12.434;2023-05-13T02:18:29;98699.63;;;8.53;100.00
61573;BME280;47465;43.094;12.434;2023-05-13T02:20:55;98753.91;;;8.79;100.00
61573;BME280;47465;43.094;12.434;2023-05-13T02:23:22;98757.63;;;8.70;100.00
61573;BME280;47465;43.094;12.434;2023-05-13T02:25:47;98744.41;;;8.69;100.00
61573;BME280;47465;43.094;12.434;2023-05-13T02:28:13;98762.81;;;8.76;100.00
61573;BME280;47465;43.094;12.434;2023-05-13T02:30:41;98734.78;;;8.63;100.00
61573;BME280;47465;43.094;12.434;2023-05-13T02:33:06;98719.88;;;8.59;100.00
61573;BME280;47465;43.094;12.434;2023-05-13T02:35:32;98735.38;;;8.77;100.00
61573;BME280;47465;43.094;12.434;2023-05-13T02:37:58;98727.09;;;8.93;100.00
61573;BME280;47465;43.094;12.434;2023-05-13T02:40:24;98693.47;;;8.95;100.00
61573;BME280;47465;43.094;12.434;2023-05-13T02:42:50;98709.16;;;9.05;100.00
61573;BME280;47465;43.094;12.434;2023-05-13T02:45:16;98733.41;;;9.28;100.00
61573;BME280;47465;43.094;12.434;2023-05-13T02:47:43;98713.13;;;9.27;100.00
61573;BME280;47465;43.094;12.434;2023-05-13T02:50:09;98733.16;;;9.40;100.00
61573;BME280;47465;43.094;12.434;2023-05-13T02:52:35;98728.84;;;9.34;100.00
61573;BME280;47465;43.094;12.434;2023-05-13T02:55:01;98720.00;;;9.35;100.00
61573;BME280;47465;43.094;12.434;2023-05-13T02:57:26;98732.09;;;9.47;100.00
61573;BME280;47465;43.094;12.434;2023-05-13T02:59:52;98703.13;;;9.38;100.00
61573;BME280;47465;43.094;12.434;2023-05-13T03:02:18;98726.63;;;9.55;100.00
61573;BME280;47465;43.094;12.434;2023-05-13T03:04:45;98742.44;;;9.59;100.00
61573;BME280;47465;43.094;12.434;2023-05-13T03:07:11;98752.31;;;9.53;100.00
61573;BME280;47465;43.094;12.434;2023-05-13T03:09:37;98754.19;;;9.48;100.00
61573;BME280;47465;43.094;12.434;2023-05-13T03:12:04;98719.56;;;9.15;100.00
61573;BME280;47465;43.094;12.434;2023-05-13T03:14:30;98727.81;;;9.01;100.00
61573;BME280;47465;43.094;12.434;2023-05-13T03:16:59;98760.25;;;9.14;100.00
61573;BME280;47465;43.094;12.434;2023-05-13T03:19:24;98745.34;;;9.08;100.00
61573;BME280;47465;43.094;12.434;2023-05-13T03:21:52;98717.84;;;9.12;100.00
61573;BME280;47465;43.094;12.434;2023-05-13T03:24:18;98725.59;;;9.21;100.00
61573;BME280;47465;43.094;12.434;2023-05-13T03:26:43;98730.16;;;9.15;100.00
61573;BME280;47465;43.094;12.434;2023-05-13T03:29:09;98742.78;;;9.05;100.00
61573;BME280;47465;43.094;12.434;2023-05-13T03:31:35;98772.72;;;9.10;100.00
61573;BME280;47465;43.094;12.434;2023-05-13T03:34:01;98751.25;;;8.80;100.00
61573;BME280;47465;43.094;12.434;2023-05-13T03:36:27;98705.75;;;8.57;100.00
61573;BME280;47465;43.094;12.434;2023-05-13T03:38:54;98710.91;;;8.63;100.00
61573;BME280;47465;43.094;12.434;2023-05-13T03:41:20;98726.91;;;8.60;100.00
61573;BME280;47465;43.094;12.434;2023-05-13T03:43:46;98726.03;;;8.59;100.00
61573;BME280;47465;43.094;12.434;2023-05-13T03:46:12;98745.34;;;8.64;100.00
61573;BME280;47465;43.094;12.434;2023-05-13T03:48:37;98740.06;;;8.63;100.00
61573;BME280;47465;43.094;12.434;2023-05-13T03:51:03;98729.72;;;8.51;100.00
61573;BME280;47465;43.094;12.434;2023-05-13T03:53:29;98725.47;;;8.42;100.00
61573;BME280;47465;43.094;12.434;2023-05-13T03:55:57;98734.22;;;8.46;100.00
61573;BME280;47465;43.094;12.434;2023-05-13T03:58:22;98734.28;;;8.44;100.00
61573;BME280;47465;43.094;12.434;2023-05-13T04:00:48;98766.72;;;8.57;100.00
61573;BME280;47465;43.094;12.434;2023-05-13T04:03:15;98728.28;;;8.33;100.00
61573;BME280;47465;43.094;12.434;2023-05-13T04:05:41;98721.31;;;8.27;100.00
61573;BME280;47465;43.094;12.434;2023-05-13T04:08:07;98756.28;;;8.48;100.00
61573;BME280;47465;43.094;12.434;2023-05-13T04:10:33;98765.88;;;8.55;100.00
61573;BME280;47465;43.094;12.434;2023-05-13T04:13:00;98769.31;;;8.60;100.00
61573;BME280;47465;43.094;12.434;2023-05-13T04:15:26;98745.63;;;8.51;100.00
61573;BME280;47465;43.094;12.434;2023-05-13T04:17:52;98748.25;;;8.52;100.00
61573;BME280;47465;43.094;12.434;2023-05-13T04:20:18;98741.84;;;8.64;100.00
61573;BME280;47465;43.094;12.434;2023-05-13T04:22:44;98764.44;;;8.82;100.00
61573;BME280;47465;43.094;12.434;2023-05-13T04:25:10;98767.81;;;8.92;100.00
61573;BME280;47465;43.094;12.434;2023-05-13T04:27:36;98770.28;;;8.99;100.00
61573;BME280;47465;43.094;12.434;2023-05-13T04:30:04;98755.31;;;8.97;100.00
61573;BME280;47465;43.094;12.434;2023-05-13T04:32:30;98763.03;;;9.09;100.00
61573;BME280;47465;43.094;12.434;2023-05-13T04:34:56;98767.25;;;9.18;100.00
61573;BME280;47465;43.094;12.434;2023-05-13T04:37:22;98768.19;;;9.15;100.00
61573;BME280;47465;43.094;12.434;2023-05-13T04:39:47;98770.81;;;9.17;100.00
61573;BME280;47465;43.094;12.434;2023-05-13T04:42:14;98750.75;;;9.03;100.00
61573;BME280;47465;43.094;12.434;2023-05-13T04:44:39;98758.66;;;9.07;100.00
61573;BME280;47465;43.094;12.434;2023-05-13T04:47:07;98787.41;;;9.27;100.00
61573;BME280;47465;43.094;12.434;2023-05-13T04:49:33;98774.09;;;9.28;100.00
61573;BME280;47465;43.094;12.434;2023-05-13T04:51:59;98763.56;;;9.23;100.00
61573;BME280;47465;43.094;12.434;2023-05-13T04:54:25;98785.28;;;9.42;100.00
61573;BME280;47465;43.094;12.434;2023-05-13T04:56:51;98760.53;;;9.42;100.00
61573;BME280;47465;43.094;12.434;2023-05-13T04:59:17;98770.53;;;9.70;100.00
61573;BME280;47465;43.094;12.434;2023-05-13T05:01:43;98753.19;;;9.91;100.00
61573;BME280;47465;43.094;12.434;2023-05-13T05:04:10;98773.97;;;10.11;100.00
61573;BME280;47465;43.094;12.434;2023-05-13T05:06:36;98735.78;;;9.79;100.00
61573;BME280;47465;43.094;12.434;2023-05-13T05:09:02;98764.31;;;9.69;100.00
61573;BME280;47465;43.094;12.434;2023-05-13T05:11:28;98761.00;;;9.61;100.00
61573;BME280;47465;43.094;12.434;2023-05-13T05:13:54;98776.31;;;9.48;100.00
61573;BME280;47465;43.094;12.434;2023-05-13T05:16:20;98783.44;;;9.46;100.00
61573;BME280;47465;43.094;12.434;2023-05-13T05:18:45;98789.28;;;9.62;100.00
61573;BME280;47465;43.094;12.434;2023-05-13T05:21:13;98784.91;;;9.97;100.00
61573;BME280;47465;43.094;12.434;2023-05-13T05:23:38;98768.38;;;10.21;100.00
61573;BME280;47465;43.094;12.434;2023-05-13T05:26:04;98743.13;;;10.39;100.00
61573;BME280;47465;43.094;12.434;2023-05-13T05:28:30;98757.41;;;10.68;100.00
61573;BME280;47465;43.094;12.434;2023-05-13T05:30:56;98746.25;;;10.86;100.00
61573;BME280;47465;43.094;12.434;2023-05-13T05:33:22;98765.00;;;11.13;100.00
61573;BME280;47465;43.094;12.434;2023-05-13T05:35:48;98747.38;;;11.09;100.00
61573;BME280;47465;43.094;12.434;2023-05-13T05:38:15;98770.59;;;11.62;100.00
61573;BME280;47465;43.094;12.434;2023-05-13T05:40:42;98753.22;;;11.78;100.00
61573;BME280;47465;43.094;12.434;2023-05-13T05:43:09;98768.66;;;12.23;100.00
61573;BME280;47465;43.094;12.434;2023-05-13T05:45:36;98753.50;;;12.50;100.00
61573;BME280;47465;43.094;12.434;2023-05-13T05:48:02;98768.56;;;12.77;100.00
61573;BME280;47465;43.094;12.434;2023-05-13T05:50:28;98744.53;;;13.02;100.00
61573;BME280;47465;43.094;12.434;2023-05-13T05:52:55;98772.66;;;13.12;100.00
61573;BME280;47465;43.094;12.434;2023-05-13T05:55:23;98754.19;;;13.06;100.00
61573;BME280;47465;43.094;12.434;2023-05-13T05:57:50;98738.44;;;12.98;100.00
61573;BME280;47465;43.094;12.434;2023-05-13T06:00:16;98761.78;;;13.17;100.00
61573;BME280;47465;43.094;12.434;2023-05-13T06:02:43;98755.69;;;13.13;100.00
61573;BME280;47465;43.094;12.434;2023-05-13T06:05:09;98748.44;;;12.68;100.00
61573;BME280;47465;43.094;12.434;2023-05-13T06:07:34;98720.47;;;12.03;100.00
61573;BME280;47465;43.094;12.434;2023-05-13T06:10:00;98746.00;;;12.37;100.00
61573;BME280;47465;43.094;12.434;2023-05-13T06:12:27;98748.53;;;11.86;100.00
61573;BME280;47465;43.094;12.434;2023-05-13T06:14:53;98758.72;;;12.02;100.00
61573;BME280;47465;43.094;12.434;2023-05-13T06:17:19;98750.13;;;11.92;100.00
61573;BME280;47465;43.094;12.434;2023-05-13T06:19:45;98746.00;;;11.82;100.00
61573;BME280;47465;43.094;12.434;2023-05-13T06:22:11;98758.03;;;12.22;100.00
61573;BME280;47465;43.094;12.434;2023-05-13T06:24:37;98756.94;;;12.54;100.00
61573;BME280;47465;43.094;12.434;2023-05-13T06:27:03;98771.56;;;12.92;100.00
61573;BME280;47465;43.094;12.434;2023-05-13T06:29:31;98775.00;;;13.20;100.00
61573;BME280;47465;43.094;12.434;2023-05-13T06:31:56;98779.03;;;13.55;100.00
61573;BME280;47465;43.094;12.434;2023-05-13T06:34:22;98779.81;;;13.81;100.00
61573;BME280;47465;43.094;12.434;2023-05-13T06:36:48;98767.19;;;14.06;100.00
61573;BME280;47465;43.094;12.434;2023-05-13T06:39:14;98780.78;;;14.85;100.00
61573;BME280;47465;43.094;12.434;2023-05-13T06:41:40;98788.34;;;15.35;100.00
61573;BME280;47465;43.094;12.434;2023-05-13T06:44:06;98785.31;;;15.62;100.00
61573;BME280;47465;43.094;12.434;2023-05-13T06:46:33;98773.44;;;15.49;97.06
61573;BME280;47465;43.094;12.434;2023-05-13T06:48:59;98794.97;;;15.66;97.89
61573;BME280;47465;43.094;12.434;2023-05-13T06:51:25;98792.59;;;15.79;97.62
61573;BME280;47465;43.094;12.434;2023-05-13T06:53:51;98769.31;;;15.60;96.67
61573;BME280;47465;43.094;12.434;2023-05-13T06:56:18;98787.59;;;15.90;96.58
61573;BME280;47465;43.094;12.434;2023-05-13T06:58:43;98746.63;;;15.87;93.99
61573;BME280;47465;43.094;12.434;2023-05-13T07:01:09;98757.72;;;16.15;92.80
61573;BME280;47465;43.094;12.434;2023-05-13T07:03:37;98745.53;;;15.91;96.03
61573;BME280;47465;43.094;12.434;2023-05-13T07:06:03;98755.16;;;16.31;93.85
61573;BME280;47465;43.094;12.434;2023-05-13T07:08:29;98732.03;;;16.63;91.81
61573;BME280;47465;43.094;12.434;2023-05-13T07:10:55;98749.53;;;16.71;92.72
61573;BME280;47465;43.094;12.434;2023-05-13T07:13:20;98764.25;;;16.63;92.50
61573;BME280;47465;43.094;12.434;2023-05-13T07:15:46;98725.63;;;16.66;93.27
61573;BME280;47465;43.094;12.434;2023-05-13T07:18:12;98726.94;;;16.92;92.53
61573;BME280;47465;43.094;12.434;2023-05-13T07:20:40;98744.59;;;17.14;91.21
61573;BME280;47465;43.094;12.434;2023-05-13T07:23:05;98718.38;;;17.01;90.36
61573;BME280;47465;43.094;12.434;2023-05-13T07:25:31;98731.81;;;17.01;92.81
61573;BME280;47465;43.094;12.434;2023-05-13T07:27:57;98728.63;;;16.60;96.00
61573;BME280;47465;43.094;12.434;2023-05-13T07:30:23;98732.59;;;17.03;89.58
61573;BME280;47465;43.094;12.434;2023-05-13T07:32:49;98719.91;;;16.02;90.14
61573;BME280;47465;43.094;12.434;2023-05-13T07:35:15;98753.84;;;15.66;91.57
61573;BME280;47465;43.094;12.434;2023-05-13T07:37:43;98724.25;;;15.31;93.15
61573;BME280;47465;43.094;12.434;2023-05-13T07:40:09;98742.69;;;14.99;97.01
61573;BME280;47465;43.094;12.434;2023-05-13T07:42:36;98753.09;;;15.45;96.07
61573;BME280;47465;43.094;12.434;2023-05-13T07:45:02;98760.03;;;15.49;100.00
61573;BME280;47465;43.094;12.434;2023-05-13T07:47:28;98723.53;;;15.27;100.00
61573;BME280;47465;43.094;12.434;2023-05-13T07:49:57;98736.22;;;15.43;100.00
61573;BME280;47465;43.094;12.434;2023-05-13T07:52:22;98751.56;;;15.58;100.00
61573;BME280;47465;43.094;12.434;2023-05-13T07:54:50;98728.97;;;15.45;100.00
61573;BME280;47465;43.094;12.434;2023-05-13T07:57:16;98735.41;;;15.78;100.00
61573;BME280;47465;43.094;12.434;2023-05-13T07:59:42;98709.72;;;15.74;96.34
61573;BME280;47465;43.094;12.434;2023-05-13T08:02:08;98741.78;;;16.12;87.31
61573;BME280;47465;43.094;12.434;2023-05-13T08:04:34;98743.66;;;15.93;84.72
61573;BME280;47465;43.094;12.434;2023-05-13T08:07:00;98702.44;;;15.76;86.32
61573;BME280;47465;43.094;12.434;2023-05-13T08:09:26;98728.31;;;16.83;79.57
61573;BME280;47465;43.094;12.434;2023-05-13T08:11:53;98713.13;;;17.16;77.23
61573;BME280;47465;43.094;12.434;2023-05-13T08:14:19;98721.56;;;17.73;75.48
61573;BME280;47465;43.094;12.434;2023-05-13T08:16:45;98714.31;;;16.94;74.20
61573;BME280;47465;43.094;12.434;2023-05-13T08:19:12;98723.47;;;16.90;76.41
61573;BME280;47465;43.094;12.434;2023-05-13T08:21:38;98703.28;;;16.66;77.85
61573;BME280;47465;43.094;12.434;2023-05-13T08:24:05;98736.25;;;16.15;76.84
61573;BME280;47465;43.094;12.434;2023-05-13T08:26:31;98708.03;;;16.26;76.17
61573;BME280;47465;43.094;12.434;2023-05-13T08:28:58;98736.38;;;16.83;75.35
61573;BME280;47465;43.094;12.434;2023-05-13T08:31:24;98728.41;;;17.31;77.09
61573;BME280;47465;43.094;12.434;2023-05-13T08:33:50;98719.06;;;17.86;74.54
61573;BME280;47465;43.094;12.434;2023-05-13T08:36:18;98694.53;;;18.22;68.82
61573;BME280;47465;43.094;12.434;2023-05-13T08:38:44;98711.81;;;18.79;63.09
61573;BME280;47465;43.094;12.434;2023-05-13T08:41:11;98699.25;;;18.63;66.72
61573;BME280;47465;43.094;12.434;2023-05-13T08:43:37;98718.81;;;18.81;61.79
61573;BME280;47465;43.094;12.434;2023-05-13T08:46:07;98724.50;;;18.46;64.33
61573;BME280;47465;43.094;12.434;2023-05-13T08:48:34;98726.88;;;17.59;69.43
61573;BME280;47465;43.094;12.434;2023-05-13T08:51:00;98734.25;;;17.71;64.21
61573;BME280;47465;43.094;12.434;2023-05-13T08:53:27;98738.84;;;17.53;59.42
61573;BME280;47465;43.094;12.434;2023-05-13T08:55:53;98716.44;;;17.37;66.62
61573;BME280;47465;43.094;12.434;2023-05-13T08:58:19;98715.16;;;17.44;67.02
61573;BME280;47465;43.094;12.434;2023-05-13T09:00:46;98718.38;;;17.51;67.34
61573;BME280;47465;43.094;12.434;2023-05-13T09:03:14;98709.44;;;17.50;66.10
61573;BME280;47465;43.094;12.434;2023-05-13T09:05:40;98710.22;;;17.84;65.22
61573;BME280;47465;43.094;12.434;2023-05-13T09:08:08;98706.66;;;18.30;65.34
61573;BME280;47465;43.094;12.434;2023-05-13T09:10:34;98696.44;;;18.20;64.64
61573;BME280;47465;43.094;12.434;2023-05-13T09:13:00;98702.22;;;18.73;61.94
61573;BME280;47465;43.094;12.434;2023-05-13T09:15:27;98696.41;;;18.95;55.38
61573;BME280;47465;43.094;12.434;2023-05-13T09:17:54;98697.63;;;19.47;57.18
61573;BME280;47465;43.094;12.434;2023-05-13T09:20:22;98679.66;;;19.60;56.66
61573;BME280;47465;43.094;12.434;2023-05-13T09:22:51;98667.53;;;19.12;54.39
61573;BME280;47465;43.094;12.434;2023-05-13T09:25:19;98695.34;;;19.12;54.18
61573;BME280;47465;43.094;12.434;2023-05-13T09:27:47;98691.75;;;18.68;40.02
61573;BME280;47465;43.094;12.434;2023-05-13T09:30:14;98686.84;;;18.61;41.91
61573;BME280;47465;43.094;12.434;2023-05-13T09:32:40;98681.53;;;18.59;41.39
61573;BME280;47465;43.094;12.434;2023-05-13T09:35:11;98690.75;;;18.55;40.08
61573;BME280;47465;43.094;12.434;2023-05-13T09:37:43;98663.28;;;18.93;44.75
61573;BME280;47465;43.094;12.434;2023-05-13T09:40:11;98690.06;;;19.66;44.00
61573;BME280;47465;43.094;12.434;2023-05-13T09:42:39;98685.44;;;19.83;39.33
61573;BME280;47465;43.094;12.434;2023-05-13T09:45:07;98685.06;;;20.02;39.77
61573;BME280;47465;43.094;12.434;2023-05-13T09:47:34;98691.84;;;19.53;41.26
61573;BME280;47465;43.094;12.434;2023-05-13T09:50:01;98651.69;;;19.34;42.97
61573;BME280;47465;43.094;12.434;2023-05-13T09:52:28;98654.31;;;19.36;45.67
61573;BME280;47465;43.094;12.434;2023-05-13T09:54:56;98657.53;;;19.28;42.61
61573;BME280;47465;43.094;12.434;2023-05-13T09:57:22;98687.84;;;19.73;43.88
61573;BME280;47465;43.094;12.434;2023-05-13T09:59:48;98681.53;;;20.14;41.23
61573;BME280;47465;43.094;12.434;2023-05-13T10:02:16;98663.31;;;20.30;45.50
61573;BME280;47465;43.094;12.434;2023-05-13T10:04:42;98686.56;;;20.46;43.35
61573;BME280;47465;43.094;12.434;2023-05-13T10:07:09;98654.38;;;20.30;43.78
61573;BME280;47465;43.094;12.434;2023-05-13T10:09:36;98650.75;;;20.17;42.31
61573;BME280;47465;43.094;12.434;2023-05-13T10:12:06;98663.97;;;20.21;42.91
61573;BME280;47465;43.094;12.434;2023-05-13T10:14:34;98649.31;;;19.98;42.27
61573;BME280;47465;43.094;12.434;2023-05-13T10:17:00;98661.88;;;20.12;41.46
61573;BME280;47465;43.094;12.434;2023-05-13T10:19:27;98662.63;;;20.14;42.76
61573;BME280;47465;43.094;12.434;2023-05-13T10:21:52;98649.00;;;20.03;43.39
61573;BME280;47465;43.094;12.434;2023-05-13T10:24:19;98663.72;;;20.11;45.33
61573;BME280;47465;43.094;12.434;2023-05-13T10:26:47;98668.72;;;19.90;46.64
61573;BME280;47465;43.094;12.434;2023-05-13T10:29:15;98640.94;;;19.76;48.20
61573;BME280;47465;43.094;12.434;2023-05-13T10:31:43;98664.97;;;19.93;47.77
61573;BME280;47465;43.094;12.434;2023-05-13T10:34:09;98645.81;;;19.83;48.24
61573;BME280;47465;43.094;12.434;2023-05-13T10:36:49;98631.53;;;19.54;47.50
61573;BME280;47465;43.094;12.434;2023-05-13T10:39:40;98625.31;;;19.66;48.70
61573;BME280;47465;43.094;12.434;2023-05-13T10:42:32;98620.97;;;19.78;49.23
61573;BME280;47465;43.094;12.434;2023-05-13T10:45:01;98609.88;;;19.83;49.04
61573;BME280;47465;43.094;12.434;2023-05-13T10:47:30;98604.56;;;19.81;49.83
61573;BME280;47465;43.094;12.434;2023-05-13T10:49:56;98595.22;;;19.87;49.58
61573;BME280;47465;43.094;12.434;2023-05-13T10:52:23;98602.78;;;20.07;50.59
61573;BME280;47465;43.094;12.434;2023-05-13T10:55:14;98606.16;;;20.11;51.59
61573;BME280;47465;43.094;12.434;2023-05-13T10:57:40;98616.63;;;20.03;52.04
61573;BME280;47465;43.094;12.434;2023-05-13T11:00:14;98595.25;;;20.13;52.14
61573;BME280;47465;43.094;12.434;2023-05-13T11:02:40;98585.97;;;20.17;53.13
61573;BME280;47465;43.094;12.434;2023-05-13T11:05:07;98572.13;;;20.34;53.12
61573;BME280;47465;43.094;12.434;2023-05-13T11:07:36;98570.88;;;20.65;51.42
61573;BME280;47465;43.094;12.434;2023-05-13T11:10:07;98607.31;;;21.22;50.62
61573;BME280;47465;43.094;12.434;2023-05-13T11:13:06;98578.97;;;20.65;51.06
61573;BME280;47465;43.094;12.434;2023-05-13T11:15:44;98589.22;;;20.35;50.59
61573;BME280;47465;43.094;12.434;2023-05-13T11:18:13;98562.97;;;20.11;51.06
61573;BME280;47465;43.094;12.434;2023-05-13T11:20:39;98584.00;;;20.06;49.82
61573;BME280;47465;43.094;12.434;2023-05-13T11:23:05;98600.75;;;20.11;51.13
61573;BME280;47465;43.094;12.434;2023-05-13T11:25:33;98585.97;;;20.29;51.35
61573;BME280;47465;43.094;12.434;2023-05-13T11:27:59;98600.03;;;20.35;49.97
61573;BME280;47465;43.094;12.434;2023-05-13T11:30:26;98572.47;;;20.17;49.34
61573;BME280;47465;43.094;12.434;2023-05-13T11:32:54;98571.94;;;20.24;49.33
61573;BME280;47465;43.094;12.434;2023-05-13T11:35:21;98604.06;;;19.89;49.67
61573;BME280;47465;43.094;12.434;2023-05-13T11:37:47;98563.88;;;19.72;48.59
61573;BME280;47465;43.094;12.434;2023-05-13T11:40:20;98568.84;;;19.90;49.56
61573;BME280;47465;43.094;12.434;2023-05-13T11:42:47;98562.22;;;20.22;48.14
61573;BME280;47465;43.094;12.434;2023-05-13T11:45:13;98594.63;;;20.73;47.48
61573;BME280;47465;43.094;12.434;2023-05-13T11:47:38;98582.50;;;20.91;46.38
61573;BME280;47465;43.094;12.434;2023-05-13T11:50:18;98614.50;;;20.98;47.43
61573;BME280;47465;43.094;12.434;2023-05-13T11:52:44;98596.81;;;20.81;47.18
61573;BME280;47465;43.094;12.434;2023-05-13T11:55:10;98608.47;;;20.30;50.28
61573;BME280;47465;43.094;12.434;2023-05-13T11:57:36;98603.34;;;20.25;49.23
61573;BME280;47465;43.094;12.434;2023-05-13T12:00:03;98608.16;;;19.95;50.50
61573;BME280;47465;43.094;12.434;2023-05-13T12:02:30;98600.66;;;19.45;50.26
61573;BME280;47465;43.094;12.434;2023-05-13T12:04:59;98604.63;;;19.67;50.32
61573;BME280;47465;43.094;12.434;2023-05-13T12:07:27;98579.88;;;19.87;52.01
61573;BME280;47465;43.094;12.434;2023-05-13T12:09:55;98615.34;;;20.34;51.07
61573;BME280;47465;43.094;12.434;2023-05-13T12:12:21;98625.28;;;20.21;49.62
61573;BME280;47465;43.094;12.434;2023-05-13T12:14:48;98630.69;;;20.34;50.56
61573;BME280;47465;43.094;12.434;2023-05-13T12:17:15;98619.03;;;20.20;50.50
61573;BME280;47465;43.094;12.434;2023-05-13T12:20:05;98608.50;;;20.03;51.22
61573;BME280;47465;43.094;12.434;2023-05-13T12:22:34;98610.16;;;20.18;51.08
61573;BME280;47465;43.094;12.434;2023-05-13T12:25:01;98584.63;;;19.97;50.81
61573;BME280;47465;43.094;12.434;2023-05-13T12:27:50;98599.69;;;20.14;51.41
61573;BME280;47465;43.094;12.434;2023-05-13T12:30:16;98606.28;;;20.22;50.20
61573;BME280;47465;43.094;12.434;2023-05-13T12:32:43;98579.28;;;20.22;51.91
61573;BME280;47465;43.094;12.434;2023-05-13T12:35:11;98577.78;;;20.57;50.75
61573;BME280;47465;43.094;12.434;2023-05-13T12:37:39;98605.34;;;20.75;50.57
61573;BME280;47465;43.094;12.434;2023-05-13T12:40:09;98580.47;;;20.44;48.50
61573;BME280;47465;43.094;12.434;2023-05-13T12:42:35;98590.56;;;20.67;48.90
61573;BME280;47465;43.094;12.434;2023-05-13T12:45:01;98596.16;;;20.64;48.27
61573;BME280;47465;43.094;12.434;2023-05-13T12:47:27;98590.13;;;20.74;49.24